Puposky, Minnesota
Current Conditions -  °F | °C
As of 11:12 PM on Friday 28 Nov 2014 (Local Time) from KBJI Reporting Station
Light Snow Light Snow  
Wind Chill:   Ceiling: 1500
Heat Index: 16°   Visibility: 3mi
Dew Point: 13°   Wind: 12mph
Humidity: 87%   Direction: 150°SSE
Pressure: 29.6"   Gusts: NA
Location:  47.68°N, 94.89°W
Report Text: KBJI 290512Z AUTO 15010KT 3SM -SN OVC015 M09/M10 A2960 RMK AO2 T10871105
Loading
Personal Weather Stations






























Interactive Weather Map New forecast layout! Learn more

10-Day Weather Forecast

Advertisements
Track Severe Weather on mobile